sensor_id;sensor_type;location;lat;lon;timestamp;pressure;altitude;pressure_sealevel;temperature;humidity
45040;BME280;30778;53.574;7.770;2023-01-28T00:01:18;102983.44;;;0.60;43.82
45040;BME280;30778;53.574;7.770;2023-01-28T00:03:43;102981.78;;;0.62;43.81
45040;BME280;30778;53.574;7.770;2023-01-28T00:06:12;102982.81;;;0.67;43.28
45040;BME280;30778;53.574;7.770;2023-01-28T00:08:38;102974.94;;;0.62;43.52
45040;BME280;30778;53.574;7.770;2023-01-28T00:11:06;102967.69;;;0.52;43.39
45040;BME280;30778;53.574;7.770;2023-01-28T00:13:32;102969.75;;;0.37;43.45
45040;BME280;30778;53.574;7.770;2023-01-28T00:15:59;102961.41;;;0.20;44.05
45040;BME280;30778;53.574;7.770;2023-01-28T00:18:27;102967.94;;;0.10;44.53
45040;BME280;30778;53.574;7.770;2023-01-28T00:23:23;102965.47;;;-0.09;44.54
45040;BME280;30778;53.574;7.770;2023-01-28T00:25:49;102966.94;;;-0.16;44.44
45040;BME280;30778;53.574;7.770;2023-01-28T00:28:14;102960.94;;;-0.17;44.63
45040;BME280;30778;53.574;7.770;2023-01-28T00:30:39;102959.84;;;-0.22;44.82
45040;BME280;30778;53.574;7.770;2023-01-28T00:33:05;102967.81;;;-0.16;44.62
45040;BME280;30778;53.574;7.770;2023-01-28T00:35:30;102974.72;;;-0.15;44.67
45040;BME280;30778;53.574;7.770;2023-01-28T00:37:56;102976.09;;;-0.23;44.94
45040;BME280;30778;53.574;7.770;2023-01-28T00:40:21;102972.41;;;-0.29;45.32
45040;BME280;30778;53.574;7.770;2023-01-28T00:42:47;102974.91;;;-0.31;45.40
45040;BME280;30778;53.574;7.770;2023-01-28T00:45:12;102970.72;;;-0.29;45.30
45040;BME280;30778;53.574;7.770;2023-01-28T00:47:38;102967.03;;;-0.36;45.27
45040;BME280;30778;53.574;7.770;2023-01-28T00:50:04;102967.88;;;-0.37;45.67
45040;BME280;30778;53.574;7.770;2023-01-28T00:52:29;102966.41;;;-0.30;45.64
45040;BME280;30778;53.574;7.770;2023-01-28T00:54:55;102963.50;;;-0.39;45.59
45040;BME280;30778;53.574;7.770;2023-01-28T00:57:21;102950.97;;;-0.52;45.91
45040;BME280;30778;53.574;7.770;2023-01-28T00:59:47;102962.63;;;-0.61;46.25
45040;BME280;30778;53.574;7.770;2023-01-28T01:02:12;102963.44;;;-0.62;46.17
45040;BME280;30778;53.574;7.770;2023-01-28T01:04:39;102964.16;;;-0.66;46.24
45040;BME280;30778;53.574;7.770;2023-01-28T01:07:05;102970.34;;;-0.61;46.39
45040;BME280;30778;53.574;7.770;2023-01-28T01:09:31;102973.66;;;-0.63;46.14
45040;BME280;30778;53.574;7.770;2023-01-28T01:11:56;102977.03;;;-0.64;46.13
45040;BME280;30778;53.574;7.770;2023-01-28T01:14:22;102981.19;;;-0.68;46.18
45040;BME280;30778;53.574;7.770;2023-01-28T01:16:47;102982.13;;;-0.66;46.14
45040;BME280;30778;53.574;7.770;2023-01-28T01:19:12;102973.47;;;-0.68;46.23
45040;BME280;30778;53.574;7.770;2023-01-28T01:21:38;102975.69;;;-0.77;46.23
45040;BME280;30778;53.574;7.770;2023-01-28T01:24:03;102981.72;;;-0.75;46.51
45040;BME280;30778;53.574;7.770;2023-01-28T01:26:29;102975.28;;;-0.65;46.15
45040;BME280;30778;53.574;7.770;2023-01-28T01:28:56;102980.66;;;-0.80;46.57
45040;BME280;30778;53.574;7.770;2023-01-28T01:31:21;102979.59;;;-0.85;46.58
45040;BME280;30778;53.574;7.770;2023-01-28T01:33:49;102975.53;;;-0.80;46.70
45040;BME280;30778;53.574;7.770;2023-01-28T01:36:16;102983.50;;;-0.74;46.43
45040;BME280;30778;53.574;7.770;2023-01-28T01:38:43;102974.78;;;-0.78;46.28
45040;BME280;30778;53.574;7.770;2023-01-28T01:41:20;102982.06;;;-0.88;46.39
45040;BME280;30778;53.574;7.770;2023-01-28T01:43:55;102972.41;;;-1.13;46.84
45040;BME280;30778;53.574;7.770;2023-01-28T01:51:38;102980.59;;;-1.22;47.39
45040;BME280;30778;53.574;7.770;2023-01-28T01:54:04;102985.19;;;-1.34;47.36
45040;BME280;30778;53.574;7.770;2023-01-28T01:56:34;102986.91;;;-1.54;47.87
45040;BME280;30778;53.574;7.770;2023-01-28T01:59:03;102987.63;;;-1.76;48.32
45040;BME280;30778;53.574;7.770;2023-01-28T02:01:31;102986.22;;;-1.70;48.11
45040;BME280;30778;53.574;7.770;2023-01-28T02:04:05;102989.09;;;-1.62;48.28
45040;BME280;30778;53.574;7.770;2023-01-28T02:06:34;102989.09;;;-1.43;47.95
45040;BME280;30778;53.574;7.770;2023-01-28T02:09:01;102984.66;;;-1.27;48.00
45040;BME280;30778;53.574;7.770;2023-01-28T02:11:30;102976.19;;;-1.25;48.07
45040;BME280;30778;53.574;7.770;2023-01-28T02:13:59;102981.13;;;-1.29;48.30
45040;BME280;30778;53.574;7.770;2023-01-28T02:16:27;102981.75;;;-1.35;48.39
45040;BME280;30778;53.574;7.770;2023-01-28T02:18:52;102983.63;;;-1.31;48.61
45040;BME280;30778;53.574;7.770;2023-01-28T02:21:43;102982.63;;;-1.15;48.35
45040;BME280;30778;53.574;7.770;2023-01-28T02:30:13;102982.44;;;-1.39;49.00
45040;BME280;30778;53.574;7.770;2023-01-28T02:32:51;102974.38;;;-1.47;49.36
45040;BME280;30778;53.574;7.770;2023-01-28T02:38:14;102978.44;;;-1.32;48.53
45040;BME280;30778;53.574;7.770;2023-01-28T02:40:42;102974.13;;;-1.33;48.74
45040;BME280;30778;53.574;7.770;2023-01-28T02:43:33;102974.78;;;-1.38;48.76
45040;BME280;30778;53.574;7.770;2023-01-28T02:46:09;102980.41;;;-1.46;49.16
45040;BME280;30778;53.574;7.770;2023-01-28T02:48:55;102980.63;;;-1.42;48.99
45040;BME280;30778;53.574;7.770;2023-01-28T02:51:38;102979.13;;;-1.56;49.32
45040;BME280;30778;53.574;7.770;2023-01-28T02:54:13;102976.16;;;-1.46;49.11
45040;BME280;30778;53.574;7.770;2023-01-28T02:57:01;102974.00;;;-1.56;49.24
45040;BME280;30778;53.574;7.770;2023-01-28T03:00:02;102961.72;;;-1.63;49.61
45040;BME280;30778;53.574;7.770;2023-01-28T03:02:33;102953.63;;;-1.53;49.29
45040;BME280;30778;53.574;7.770;2023-01-28T03:05:06;102964.47;;;-1.59;49.07
45040;BME280;30778;53.574;7.770;2023-01-28T03:07:36;102961.84;;;-1.60;49.79
45040;BME280;30778;53.574;7.770;2023-01-28T03:10:07;102964.28;;;-1.63;49.61
45040;BME280;30778;53.574;7.770;2023-01-28T03:12:36;102961.13;;;-1.57;49.28
45040;BME280;30778;53.574;7.770;2023-01-28T03:15:25;102956.38;;;-1.68;49.36
45040;BME280;30778;53.574;7.770;2023-01-28T03:18:23;102949.97;;;-1.77;49.70
45040;BME280;30778;53.574;7.770;2023-01-28T03:21:14;102960.69;;;-1.86;50.29
45040;BME280;30778;53.574;7.770;2023-01-28T03:24:02;102952.78;;;-1.71;49.68
45040;BME280;30778;53.574;7.770;2023-01-28T03:29:42;102952.94;;;-1.68;49.59
45040;BME280;30778;53.574;7.770;2023-01-28T03:32:29;102948.53;;;-1.51;49.34
45040;BME280;30778;53.574;7.770;2023-01-28T03:35:17;102962.38;;;-1.48;49.61
45040;BME280;30778;53.574;7.770;2023-01-28T03:38:04;102964.00;;;-1.50;49.63
45040;BME280;30778;53.574;7.770;2023-01-28T03:40:55;102965.91;;;-1.46;49.72
45040;BME280;30778;53.574;7.770;2023-01-28T03:43:22;102963.72;;;-1.36;49.42
45040;BME280;30778;53.574;7.770;2023-01-28T03:45:49;102962.38;;;-1.48;49.45
45040;BME280;30778;53.574;7.770;2023-01-28T03:48:20;102964.69;;;-1.54;49.60
45040;BME280;30778;53.574;7.770;2023-01-28T03:50:46;102971.16;;;-1.43;49.71
45040;BME280;30778;53.574;7.770;2023-01-28T03:53:14;102970.28;;;-1.43;49.58
45040;BME280;30778;53.574;7.770;2023-01-28T03:55:49;102972.94;;;-1.42;49.53
45040;BME280;30778;53.574;7.770;2023-01-28T03:58:16;102973.03;;;-1.39;49.85
45040;BME280;30778;53.574;7.770;2023-01-28T04:00:43;102972.44;;;-1.33;49.45
45040;BME280;30778;53.574;7.770;2023-01-28T04:03:13;102966.28;;;-1.36;49.09
45040;BME280;30778;53.574;7.770;2023-01-28T04:06:04;102966.03;;;-1.43;49.49
45040;BME280;30778;53.574;7.770;2023-01-28T04:08:56;102975.69;;;-1.37;49.42
45040;BME280;30778;53.574;7.770;2023-01-28T04:11:50;102973.63;;;-1.44;49.31
45040;BME280;30778;53.574;7.770;2023-01-28T04:14:22;102983.31;;;-1.58;49.85
45040;BME280;30778;53.574;7.770;2023-01-28T04:16:52;102972.72;;;-1.46;49.46
45040;BME280;30778;53.574;7.770;2023-01-28T04:19:19;102968.06;;;-1.55;49.57
45040;BME280;30778;53.574;7.770;2023-01-28T04:21:46;102967.72;;;-1.63;49.68
45040;BME280;30778;53.574;7.770;2023-01-28T04:24:12;102974.19;;;-1.51;49.89
45040;BME280;30778;53.574;7.770;2023-01-28T04:26:38;102963.19;;;-1.49;49.50
45040;BME280;30778;53.574;7.770;2023-01-28T04:29:04;102960.88;;;-1.62;49.92
45040;BME280;30778;53.574;7.770;2023-01-28T04:31:32;102956.31;;;-1.69;50.12
45040;BME280;30778;53.574;7.770;2023-01-28T04:34:18;102956.47;;;-1.66;50.19
45040;BME280;30778;53.574;7.770;2023-01-28T04:37:12;102945.94;;;-1.72;50.39
45040;BME280;30778;53.574;7.770;2023-01-28T04:39:43;102939.03;;;-1.73;50.02
45040;BME280;30778;53.574;7.770;2023-01-28T04:42:20;102940.81;;;-1.72;50.24
45040;BME280;30778;53.574;7.770;2023-01-28T04:45:09;102939.66;;;-1.79;50.59
45040;BME280;30778;53.574;7.770;2023-01-28T04:47:53;102938.38;;;-1.89;50.64
45040;BME280;30778;53.574;7.770;2023-01-28T04:50:31;102933.97;;;-1.72;51.15
45040;BME280;30778;53.574;7.770;2023-01-28T04:53:25;102923.66;;;-1.73;50.66
45040;BME280;30778;53.574;7.770;2023-01-28T04:55:56;102915.84;;;-1.76;50.52
45040;BME280;30778;53.574;7.770;2023-01-28T04:58:23;102910.59;;;-1.80;50.27
45040;BME280;30778;53.574;7.770;2023-01-28T05:00:57;102918.00;;;-1.86;50.23
45040;BME280;30778;53.574;7.770;2023-01-28T05:03:24;102928.03;;;-1.90;50.28
45040;BME280;30778;53.574;7.770;2023-01-28T05:05:50;102929.13;;;-1.85;50.33
45040;BME280;30778;53.574;7.770;2023-01-28T05:08:35;102919.25;;;-1.76;50.61
45040;BME280;30778;53.574;7.770;2023-01-28T05:11:01;102918.50;;;-1.73;50.44
45040;BME280;30778;53.574;7.770;2023-01-28T05:13:26;102916.56;;;-1.79;50.34
45040;BME280;30778;53.574;7.770;2023-01-28T05:15:52;102926.63;;;-1.84;50.40
45040;BME280;30778;53.574;7.770;2023-01-28T05:18:19;102911.66;;;-1.74;50.38
45040;BME280;30778;53.574;7.770;2023-01-28T05:21:00;102915.03;;;-1.75;50.37
45040;BME280;30778;53.574;7.770;2023-01-28T05:23:25;102917.72;;;-1.72;50.35
45040;BME280;30778;53.574;7.770;2023-01-28T05:25:54;102903.94;;;-1.94;51.11
45040;BME280;30778;53.574;7.770;2023-01-28T05:28:21;102908.13;;;-1.76;50.67
45040;BME280;30778;53.574;7.770;2023-01-28T05:30:46;102928.94;;;-1.70;50.53
45040;BME280;30778;53.574;7.770;2023-01-28T05:33:12;102917.72;;;-1.72;50.49
45040;BME280;30778;53.574;7.770;2023-01-28T05:35:37;102917.16;;;-1.85;50.66
45040;BME280;30778;53.574;7.770;2023-01-28T05:38:04;102917.81;;;-1.71;50.65
45040;BME280;30778;53.574;7.770;2023-01-28T05:40:29;102924.31;;;-1.58;50.41
45040;BME280;30778;53.574;7.770;2023-01-28T05:42:55;102916.81;;;-1.53;50.32
45040;BME280;30778;53.574;7.770;2023-01-28T05:45:31;102915.53;;;-1.44;50.27
45040;BME280;30778;53.574;7.770;2023-01-28T05:48:03;102914.88;;;-1.40;50.06
45040;BME280;30778;53.574;7.770;2023-01-28T05:51:02;102913.88;;;-1.22;50.02
45040;BME280;30778;53.574;7.770;2023-01-28T05:53:32;102907.69;;;-1.27;49.63
45040;BME280;30778;53.574;7.770;2023-01-28T05:55:58;102912.09;;;-1.44;49.24
45040;BME280;30778;53.574;7.770;2023-01-28T05:58:24;102909.47;;;-1.25;49.24
45040;BME280;30778;53.574;7.770;2023-01-28T06:00:54;102910.97;;;-1.51;49.70
45040;BME280;30778;53.574;7.770;2023-01-28T06:03:25;102914.91;;;-1.38;49.49
45040;BME280;30778;53.574;7.770;2023-01-28T06:05:51;102918.59;;;-1.72;50.28
45040;BME280;30778;53.574;7.770;2023-01-28T06:08:16;102920.41;;;-1.69;50.35
45040;BME280;30778;53.574;7.770;2023-01-28T06:10:42;102913.94;;;-1.61;49.58
45040;BME280;30778;53.574;7.770;2023-01-28T06:13:07;102915.25;;;-1.71;50.05
45040;BME280;30778;53.574;7.770;2023-01-28T06:15:53;102923.81;;;-1.70;50.23
45040;BME280;30778;53.574;7.770;2023-01-28T06:18:38;102923.25;;;-1.83;50.55
45040;BME280;30778;53.574;7.770;2023-01-28T06:21:05;102930.75;;;-1.68;50.09
45040;BME280;30778;53.574;7.770;2023-01-28T06:23:31;102929.91;;;-1.67;49.61
45040;BME280;30778;53.574;7.770;2023-01-28T06:25:57;102934.28;;;-2.03;50.89
45040;BME280;30778;53.574;7.770;2023-01-28T06:28:23;102927.19;;;-1.91;50.53
45040;BME280;30778;53.574;7.770;2023-01-28T06:30:50;102924.69;;;-2.27;51.23
45040;BME280;30778;53.574;7.770;2023-01-28T06:33:17;102935.91;;;-2.05;50.88
45040;BME280;30778;53.574;7.770;2023-01-28T06:35:42;102933.09;;;-1.92;50.18
45040;BME280;30778;53.574;7.770;2023-01-28T06:38:08;102944.25;;;-2.09;50.82
45040;BME280;30778;53.574;7.770;2023-01-28T06:40:33;102941.59;;;-1.93;50.17
45040;BME280;30778;53.574;7.770;2023-01-28T06:42:59;102936.31;;;-2.15;51.28
45040;BME280;30778;53.574;7.770;2023-01-28T06:45:25;102935.44;;;-1.96;50.55
45040;BME280;30778;53.574;7.770;2023-01-28T06:47:50;102941.06;;;-1.86;50.01
45040;BME280;30778;53.574;7.770;2023-01-28T06:50:16;102942.81;;;-1.85;49.84
45040;BME280;30778;53.574;7.770;2023-01-28T06:52:41;102946.97;;;-1.87;50.35
45040;BME280;30778;53.574;7.770;2023-01-28T06:55:08;102946.72;;;-1.93;49.96
45040;BME280;30778;53.574;7.770;2023-01-28T06:57:33;102955.28;;;-1.92;50.05
45040;BME280;30778;53.574;7.770;2023-01-28T07:00:01;102951.00;;;-2.11;50.54
45040;BME280;30778;53.574;7.770;2023-01-28T07:02:27;102948.50;;;-2.10;50.53
45040;BME280;30778;53.574;7.770;2023-01-28T07:04:52;102950.72;;;-2.17;50.27
45040;BME280;30778;53.574;7.770;2023-01-28T07:07:17;102959.53;;;-2.30;50.73
45040;BME280;30778;53.574;7.770;2023-01-28T07:09:43;102953.00;;;-2.24;50.44
45040;BME280;30778;53.574;7.770;2023-01-28T07:12:08;102962.00;;;-2.32;51.00
45040;BME280;30778;53.574;7.770;2023-01-28T07:14:34;102962.31;;;-2.26;50.24
45040;BME280;30778;53.574;7.770;2023-01-28T07:16:59;102964.19;;;-2.22;50.02
45040;BME280;30778;53.574;7.770;2023-01-28T07:19:25;102970.50;;;-2.33;50.42
45040;BME280;30778;53.574;7.770;2023-01-28T07:21:50;102978.13;;;-2.34;50.76
45040;BME280;30778;53.574;7.770;2023-01-28T07:24:16;102975.25;;;-2.23;50.14
45040;BME280;30778;53.574;7.770;2023-01-28T07:26:41;102965.69;;;-2.27;50.50
45040;BME280;30778;53.574;7.770;2023-01-28T07:29:08;102962.44;;;-2.23;50.12
45040;BME280;30778;53.574;7.770;2023-01-28T07:31:33;102960.56;;;-2.27;49.97
45040;BME280;30778;53.574;7.770;2023-01-28T07:33:59;102948.25;;;-2.34;50.65
45040;BME280;30778;53.574;7.770;2023-01-28T07:36:24;102940.88;;;-2.46;51.30
45040;BME280;30778;53.574;7.770;2023-01-28T07:38:49;102959.88;;;-2.40;50.90
45040;BME280;30778;53.574;7.770;2023-01-28T07:41:15;102965.44;;;-2.31;50.60
45040;BME280;30778;53.574;7.770;2023-01-28T07:43:42;102967.28;;;-2.29;50.40
45040;BME280;30778;53.574;7.770;2023-01-28T07:46:07;102961.13;;;-2.32;51.02
45040;BME280;30778;53.574;7.770;2023-01-28T07:48:33;102957.47;;;-2.19;50.75
45040;BME280;30778;53.574;7.770;2023-01-28T07:51:01;102957.69;;;-2.15;50.85
45040;BME280;30778;53.574;7.770;2023-01-28T07:53:27;102969.16;;;-2.07;50.80
45040;BME280;30778;53.574;7.770;2023-01-28T07:55:58;102972.34;;;-1.93;49.98
45040;BME280;30778;53.574;7.770;2023-01-28T07:58:24;102965.16;;;-1.43;49.89
45040;BME280;30778;53.574;7.770;2023-01-28T08:00:50;102968.56;;;-1.23;49.22
45040;BME280;30778;53.574;7.770;2023-01-28T08:03:16;102965.44;;;-1.16;48.28
45040;BME280;30778;53.574;7.770;2023-01-28T08:05:46;102976.47;;;-0.99;48.10
45040;BME280;30778;53.574;7.770;2023-01-28T08:08:13;102973.16;;;-0.54;46.67
45040;BME280;30778;53.574;7.770;2023-01-28T08:10:39;102984.59;;;-0.46;46.93
45040;BME280;30778;53.574;7.770;2023-01-28T08:13:06;102994.91;;;-0.24;46.60
45040;BME280;30778;53.574;7.770;2023-01-28T08:15:32;102998.38;;;-0.44;45.64
45040;BME280;30778;53.574;7.770;2023-01-28T08:17:59;103012.59;;;-0.73;46.68
45040;BME280;30778;53.574;7.770;2023-01-28T08:20:26;103004.28;;;-0.47;46.83
45040;BME280;30778;53.574;7.770;2023-01-28T08:22:52;103009.78;;;0.06;46.09
45040;BME280;30778;53.574;7.770;2023-01-28T08:25:18;103009.47;;;1.19;44.62
45040;BME280;30778;53.574;7.770;2023-01-28T08:27:44;103004.22;;;2.26;42.14
45040;BME280;30778;53.574;7.770;2023-01-28T08:30:10;103010.53;;;2.99;40.79
45040;BME280;30778;53.574;7.770;2023-01-28T08:32:36;103008.63;;;3.25;39.22
45040;BME280;30778;53.574;7.770;2023-01-28T08:35:02;103005.63;;;4.20;36.00
45040;BME280;30778;53.574;7.770;2023-01-28T08:37:28;103003.00;;;5.07;35.26
45040;BME280;30778;53.574;7.770;2023-01-28T08:39:53;103013.22;;;6.11;34.32
45040;BME280;30778;53.574;7.770;2023-01-28T08:42:19;103010.34;;;6.61;31.68
45040;BME280;30778;53.574;7.770;2023-01-28T08:44:44;103014.72;;;6.63;30.78
45040;BME280;30778;53.574;7.770;2023-01-28T08:47:10;103017.22;;;5.88;32.70
45040;BME280;30778;53.574;7.770;2023-01-28T08:49:35;103014.81;;;6.02;31.87
45040;BME280;30778;53.574;7.770;2023-01-28T08:52:01;103020.34;;;5.11;35.15
45040;BME280;30778;53.574;7.770;2023-01-28T08:54:26;103021.41;;;5.22;33.59
45040;BME280;30778;53.574;7.770;2023-01-28T08:56:52;103023.25;;;5.86;34.36
45040;BME280;30778;53.574;7.770;2023-01-28T08:59:17;103026.44;;;6.31;33.01
45040;BME280;30778;53.574;7.770;2023-01-28T09:01:42;103007.16;;;6.15;33.82
45040;BME280;30778;53.574;7.770;2023-01-28T09:04:08;103006.91;;;5.37;34.73
45040;BME280;30778;53.574;7.770;2023-01-28T09:06:34;103021.81;;;6.06;32.61
45040;BME280;30778;53.574;7.770;2023-01-28T09:08:59;103016.88;;;5.64;34.51
45040;BME280;30778;53.574;7.770;2023-01-28T09:11:26;103017.50;;;4.97;37.63
45040;BME280;30778;53.574;7.770;2023-01-28T09:13:51;103016.19;;;5.76;34.41
45040;BME280;30778;53.574;7.770;2023-01-28T09:16:17;103007.84;;;5.40;35.33
45040;BME280;30778;53.574;7.770;2023-01-28T09:18:42;103019.41;;;4.62;35.02
45040;BME280;30778;53.574;7.770;2023-01-28T09:21:08;103022.88;;;4.20;38.40
45040;BME280;30778;53.574;7.770;2023-01-28T09:23:34;103011.28;;;3.63;37.89
45040;BME280;30778;53.574;7.770;2023-01-28T09:26:01;103014.22;;;4.62;38.02
45040;BME280;30778;53.574;7.770;2023-01-28T09:28:27;103013.25;;;4.55;37.21
45040;BME280;30778;53.574;7.770;2023-01-28T09:31:06;103005.84;;;4.30;37.90
45040;BME280;30778;53.574;7.770;2023-01-28T09:33:34;103008.72;;;4.43;37.86
45040;BME280;30778;53.574;7.770;2023-01-28T09:36:00;103001.53;;;4.30;38.29
45040;BME280;30778;53.574;7.770;2023-01-28T09:38:26;103006.84;;;3.23;40.52
45040;BME280;30778;53.574;7.770;2023-01-28T09:40:53;103012.31;;;2.68;41.66
45040;BME280;30778;53.574;7.770;2023-01-28T09:46:07;103016.34;;;2.00;43.75
45040;BME280;30778;53.574;7.770;2023-01-28T09:48:42;103016.66;;;2.09;43.71
45040;BME280;30778;53.574;7.770;2023-01-28T09:51:12;103007.56;;;2.52;42.99
45040;BME280;30778;53.574;7.770;2023-01-28T09:53:44;103011.56;;;2.12;43.61
45040;BME280;30778;53.574;7.770;2023-01-28T09:56:24;103002.97;;;2.11;43.94
45040;BME280;30778;53.574;7.770;2023-01-28T09:58:50;103000.63;;;2.51;43.78
45040;BME280;30778;53.574;7.770;2023-01-28T10:01:39;102997.50;;;2.31;43.23
45040;BME280;30778;53.574;7.770;2023-01-28T10:17:35;102992.56;;;3.37;41.36
45040;BME280;30778;53.574;7.770;2023-01-28T10:20:06;102976.56;;;2.84;42.52
45040;BME280;30778;53.574;7.770;2023-01-28T10:22:48;102962.63;;;2.77;42.44
45040;BME280;30778;53.574;7.770;2023-01-28T10:25:18;102947.63;;;2.97;43.30
45040;BME280;30778;53.574;7.770;2023-01-28T10:27:45;102935.53;;;3.31;42.08
45040;BME280;30778;53.574;7.770;2023-01-28T10:32:50;102928.41;;;2.21;44.44
45040;BME280;30778;53.574;7.770;2023-01-28T10:35:16;102931.38;;;1.74;44.79
45040;BME280;30778;53.574;7.770;2023-01-28T10:37:42;102910.94;;;1.80;45.63
45040;BME280;30778;53.574;7.770;2023-01-28T10:40:15;102898.66;;;2.33;44.29
45040;BME280;30778;53.574;7.770;2023-01-28T10:42:42;102910.97;;;2.77;43.60
45040;BME280;30778;53.574;7.770;2023-01-28T10:48:21;102902.34;;;3.13;42.67
45040;BME280;30778;53.574;7.770;2023-01-28T10:50:55;102902.78;;;3.30;42.53
45040;BME280;30778;53.574;7.770;2023-01-28T10:53:40;102908.66;;;2.88;43.08
45040;BME280;30778;53.574;7.770;2023-01-28T10:56:09;102918.94;;;2.53;44.06
45040;BME280;30778;53.574;7.770;2023-01-28T10:58:59;102916.91;;;3.44;42.30
45040;BME280;30778;53.574;7.770;2023-01-28T11:04:28;102921.91;;;3.38;42.48
45040;BME280;30778;53.574;7.770;2023-01-28T11:07:02;102936.91;;;2.82;43.87
45040;BME280;30778;53.574;7.770;2023-01-28T11:09:33;102928.72;;;2.98;43.86
45040;BME280;30778;53.574;7.770;2023-01-28T11:12:31;102936.81;;;3.48;43.14
45040;BME280;30778;53.574;7.770;2023-01-28T11:14:58;102932.81;;;2.90;43.40
45040;BME280;30778;53.574;7.770;2023-01-28T11:17:26;102931.78;;;2.83;43.93
45040;BME280;30778;53.574;7.770;2023-01-28T11:19:55;102921.34;;;3.15;43.05
45040;BME280;30778;53.574;7.770;2023-01-28T11:22:32;102933.34;;;2.76;44.33
45040;BME280;30778;53.574;7.770;2023-01-28T11:25:25;102933.78;;;2.60;44.54
45040;BME280;30778;53.574;7.770;2023-01-28T11:27:53;102931.53;;;3.07;42.71
45040;BME280;30778;53.574;7.770;2023-01-28T11:30:31;102930.47;;;2.66;44.82
45040;BME280;30778;53.574;7.770;2023-01-28T11:35:29;102935.56;;;2.63;44.29
45040;BME280;30778;53.574;7.770;2023-01-28T11:37:59;102932.22;;;3.02;43.68
45040;BME280;30778;53.574;7.770;2023-01-28T11:40:26;102925.31;;;3.34;43.08
45040;BME280;30778;53.574;7.770;2023-01-28T11:42:53;102914.56;;;2.49;44.77
45040;BME280;30778;53.574;7.770;2023-01-28T11:45:48;102907.25;;;3.02;43.75
45040;BME280;30778;53.574;7.770;2023-01-28T11:51:05;102888.53;;;3.47;43.59
45040;BME280;30778;53.574;7.770;2023-01-28T11:54:05;102880.03;;;3.53;43.19
45040;BME280;30778;53.574;7.770;2023-01-28T12:07:28;102878.50;;;3.25;43.54
45040;BME280;30778;53.574;7.770;2023-01-28T12:10:08;102879.78;;;2.69;44.90
45040;BME280;30778;53.574;7.770;2023-01-28T12:20:38;102874.91;;;2.82;45.00
45040;BME280;30778;53.574;7.770;2023-01-28T12:26:14;102879.59;;;4.65;41.60
45040;BME280;30778;53.574;7.770;2023-01-28T12:34:29;102849.56;;;3.79;42.74
45040;BME280;30778;53.574;7.770;2023-01-28T12:37:05;102843.28;;;3.68;43.35
45040;BME280;30778;53.574;7.770;2023-01-28T12:42:42;102841.97;;;3.88;43.52
45040;BME280;30778;53.574;7.770;2023-01-28T12:45:15;102845.03;;;3.69;43.94
45040;BME280;30778;53.574;7.770;2023-01-28T12:47:43;102846.16;;;3.82;44.11
45040;BME280;30778;53.574;7.770;2023-01-28T12:50:51;102846.63;;;4.56;41.70
45040;BME280;30778;53.574;7.770;2023-01-28T12:53:23;102853.38;;;4.47;43.22
45040;BME280;30778;53.574;7.770;2023-01-28T12:56:09;102864.34;;;3.86;43.65
45040;BME280;30778;53.574;7.770;2023-01-28T13:01:14;102860.91;;;3.87;43.36
45040;BME280;30778;53.574;7.770;2023-01-28T13:06:16;102862.75;;;3.12;45.34
45040;BME280;30778;53.574;7.770;2023-01-28T13:08:43;102863.78;;;2.83;46.51
45040;BME280;30778;53.574;7.770;2023-01-28T13:11:13;102870.50;;;3.50;45.21
45040;BME280;30778;53.574;7.770;2023-01-28T13:13:41;102866.34;;;3.57;45.00
45040;BME280;30778;53.574;7.770;2023-01-28T13:16:09;102863.31;;;3.37;45.47
45040;BME280;30778;53.574;7.770;2023-01-28T13:21:06;102848.31;;;3.62;44.50
45040;BME280;30778;53.574;7.770;2023-01-28T13:23:49;102861.41;;;3.69;44.79
45040;BME280;30778;53.574;7.770;2023-01-28T13:28:48;102858.84;;;3.71;45.29
45040;BME280;30778;53.574;7.770;2023-01-28T13:31:16;102851.31;;;3.82;44.84
45040;BME280;30778;53.574;7.770;2023-01-28T13:33:46;102846.50;;;4.00;44.42
45040;BME280;30778;53.574;7.770;2023-01-28T13:36:36;102843.34;;;3.71;44.96
45040;BME280;30778;53.574;7.770;2023-01-28T13:41:51;102842.00;;;3.47;45.82
45040;BME280;30778;53.574;7.770;2023-01-28T13:44:18;102849.13;;;2.83;46.84
45040;BME280;30778;53.574;7.770;2023-01-28T13:46:44;102843.97;;;2.83;47.05
45040;BME280;30778;53.574;7.770;2023-01-28T13:49:14;102844.78;;;3.18;46.30
45040;BME280;30778;53.574;7.770;2023-01-28T14:11:19;102840.84;;;3.75;45.34
45040;BME280;30778;53.574;7.770;2023-01-28T14:16:29;102854.22;;;3.16;46.98
45040;BME280;30778;53.574;7.770;2023-01-28T14:19:00;102857.75;;;3.59;46.33
45040;BME280;30778;53.574;7.770;2023-01-28T14:21:26;102860.34;;;3.59;46.11
45040;BME280;30778;53.574;7.770;2023-01-28T14:23:54;102858.34;;;3.89;45.62
45040;BME280;30778;53.574;7.770;2023-01-28T14:27:00;102862.41;;;3.76;45.71
45040;BME280;30778;53.574;7.770;2023-01-28T14:32:11;102852.72;;;3.66;46.03
45040;BME280;30778;53.574;7.770;2023-01-28T14:34:39;102859.22;;;3.47;46.41
45040;BME280;30778;53.574;7.770;2023-01-28T14:37:10;102851.97;;;3.71;45.93
45040;BME280;30778;53.574;7.770;2023-01-28T14:39:45;102843.81;;;3.95;45.66
45040;BME280;30778;53.574;7.770;2023-01-28T14:42:25;102844.78;;;3.56;46.63
45040;BME280;30778;53.574;7.770;2023-01-28T14:59:15;102869.63;;;2.77;48.95
45040;BME280;30778;53.574;7.770;2023-01-28T15:01:45;102855.47;;;2.96;48.64
45040;BME280;30778;53.574;7.770;2023-01-28T15:04:29;102856.16;;;3.27;48.38
45040;BME280;30778;53.574;7.770;2023-01-28T15:06:55;102852.19;;;3.03;47.86
45040;BME280;30778;53.574;7.770;2023-01-28T15:09:22;102848.72;;;2.66;48.99
45040;BME280;30778;53.574;7.770;2023-01-28T15:11:52;102842.00;;;2.73;48.82
45040;BME280;30778;53.574;7.770;2023-01-28T15:14:26;102837.88;;;3.17;47.42
45040;BME280;30778;53.574;7.770;2023-01-28T15:16:52;102844.69;;;3.14;47.29
45040;BME280;30778;53.574;7.770;2023-01-28T15:19:25;102840.66;;;3.27;47.23
45040;BME280;30778;53.574;7.770;2023-01-28T15:21:57;102841.91;;;3.43;46.81
45040;BME280;30778;53.574;7.770;2023-01-28T15:24:24;102843.97;;;3.21;46.81
45040;BME280;30778;53.574;7.770;2023-01-28T15:26:50;102848.53;;;2.95;47.72